サンティアゴ の空港の天気 - METARとTAF

アルトゥーロ・メリノ・ベニテス国際空港(サンティアゴ) ( SCEL / SCL ) - チリ サンティアゴ
飛行場実況気象(Metar)
観測時間06/17 15:00 CLT (06/17 19:00 UTC)
風向・風速北北東 2m/s
視程8000m
天気現象
少しの雲 雲底高度 1520m
全天の8割程度の雲 雲底高度 2440m
全天を覆う雲 雲底高度 3050m
気温-
湿度-
気圧1019hPa
METARSCEL 171900Z 02004KT 360V060 8000 FEW050 BKN080 OVC100 10/05Q1019 NOSIG
過去の天気等 Google飛行場航空写真 Wunderground天気予報

過去48時間のMETAR

飛行場予報(TAF)
発表時間: 6/17 13:17 CLT (6/17 17:17 UTC)
予報対象時間: 17日14時 CLT ~ 18日14時 CLT
風向・風速南南東 2m/s
視程8000m
全天の8割程度の雲 雲底高度 2440m
全天の8割程度の雲 雲底高度 3660m
17日15時 CLT ~ 17日22時 CLT に一時的に
風向・風速北 4m/s
視程6000m
天気現象しゅう雨
全天の4割程度の雲 雲底高度 760m
全天の8割程度の雲 雲底高度 1830m
18日3時 CLT ~ 18日5時 CLT に徐々に
風向・風速不定 1m/s
視程4000m
天気現象もや
なし
18日5時 CLT ~ 18日9時 CLT に一時的に
風向・風速南南東 2m/s
視程700m
天気現象
全天の8割程度の雲 雲底高度 60m
18日12時 CLT ~ 18日14時 CLT に徐々に
風向・風速南 2m/s
視程7000m
天気現象運行に影響にある天気現象が終了
TAF COR SCEL 171717Z 1718/1818 15004KT 8000 BKN080 BKN120 TX10/1718Z TN00/1811Z
TEMPO 1719/1802 35008KT 6000 SHRA SCT025 BKN060
BECMG 1807/1809 VRB02KT 4000 BR NSC
TEMPO 1809/1813 15004KT 0700 FG BKN002
BECMG 1816/1818 18004KT 7000 NSW